Time;durP1;ratioP1;P1;durP2;ratioP2;P2;SDS_P1;SDS_P2;PMS_P1;PMS_P2;Temp;Humidity;BMP_temperature;BMP_pressure;BME280_temperature;BME280_humidity;BME280_pressure;Samples;Min_cycle;Max_cycle;Signal;HPM_P1;HPM_P2
2021/03/02 00:01:47;;;;;;;26.30;15.65;;;3.90;99.90;;;;;;4841781;29;20025;-92
2021/03/02 00:04:12;;;;;;;29.33;16.10;;;3.90;99.90;;;;;;4841975;29;20029;-91
2021/03/02 00:06:39;;;;;;;31.77;16.98;;;3.90;99.90;;;;;;4857493;29;20089;-93
2021/03/02 00:09:06;;;;;;;27.23;15.23;;;3.90;99.90;;;;;;4841287;29;20037;-93
2021/03/02 00:11:32;;;;;;;28.88;15.85;;;3.80;99.90;;;;;;4859652;29;20535;-91
2021/03/02 00:13:58;;;;;;;28.42;16.13;;;3.80;99.90;;;;;;4842916;29;20041;-92
2021/03/02 00:16:28;;;;;;;30.73;16.25;;;3.80;99.90;;;;;;4843607;29;20435;-94
2021/03/02 00:18:56;;;;;;;29.45;16.27;;;3.80;99.90;;;;;;4842613;29;20212;-93
2021/03/02 00:21:31;;;;;;;30.48;16.77;;;3.80;99.90;;;;;;4857865;29;20483;-93
2021/03/02 00:24:03;;;;;;;28.70;15.13;;;3.70;99.90;;;;;;4842615;29;20026;-93
2021/03/02 00:26:32;;;;;;;27.33;15.00;;;3.70;99.90;;;;;;4859504;29;20141;-93
2021/03/02 00:29:03;;;;;;;28.05;14.70;;;3.70;99.90;;;;;;4850924;29;20047;-94
2021/03/02 00:31:32;;;;;;;29.27;16.13;;;3.60;99.90;;;;;;4849319;29;20125;-92
2021/03/02 00:33:57;;;;;;;30.95;16.35;;;3.60;99.90;;;;;;4847504;29;20033;-90
2021/03/02 00:36:23;;;;;;;29.80;15.43;;;3.60;99.90;;;;;;4846236;29;20036;-91
2021/03/02 00:38:49;;;;;;;28.65;14.40;;;3.50;99.90;;;;;;4843680;29;20036;-92
2021/03/02 00:41:14;;;;;;;31.30;16.42;;;3.50;99.90;;;;;;4844068;29;20109;-93
2021/03/02 00:43:40;;;;;;;33.03;16.08;;;3.50;99.90;;;;;;4860013;29;20046;-92
2021/03/02 00:46:06;;;;;;;35.35;16.30;;;3.40;99.90;;;;;;4859348;29;20057;-92
2021/03/02 00:48:31;;;;;;;34.60;16.95;;;3.50;99.90;;;;;;4859802;29;20033;-92
2021/03/02 00:50:57;;;;;;;38.83;18.55;;;3.40;99.90;;;;;;4843175;29;20566;-91
2021/03/02 00:53:22;;;;;;;41.95;20.15;;;3.40;99.90;;;;;;4859577;29;20023;-91
2021/03/02 00:55:48;;;;;;;47.42;20.38;;;3.40;99.90;;;;;;4859555;29;20516;-91
2021/03/02 00:58:14;;;;;;;40.40;18.27;;;3.40;99.90;;;;;;4859754;29;20500;-92
2021/03/02 01:00:39;;;;;;;44.30;21.15;;;3.40;99.90;;;;;;4843099;29;20033;-92
2021/03/02 01:03:05;;;;;;;45.42;20.42;;;3.30;99.90;;;;;;4843158;29;20036;-91
2021/03/02 01:05:31;;;;;;;44.72;21.02;;;3.30;99.90;;;;;;4843132;29;20030;-92
2021/03/02 01:07:56;;;;;;;45.22;21.05;;;3.30;99.90;;;;;;4861852;29;20025;-91
2021/03/02 01:10:22;;;;;;;45.30;19.92;;;3.30;99.90;;;;;;4847879;29;20030;-93
2021/03/02 01:12:48;;;;;;;49.13;20.52;;;3.40;99.90;;;;;;4848105;29;20026;-94
2021/03/02 01:15:14;;;;;;;47.05;19.25;;;3.40;99.90;;;;;;4847532;29;20033;-93
2021/03/02 01:17:40;;;;;;;48.90;20.42;;;3.40;99.90;;;;;;4847226;29;20030;-93
2021/03/02 01:20:06;;;;;;;44.88;19.42;;;3.40;99.90;;;;;;4864643;29;20086;-93
2021/03/02 01:22:32;;;;;;;39.75;17.27;;;3.40;99.90;;;;;;4864437;29;20081;-92
2021/03/02 01:24:57;;;;;;;40.45;17.25;;;3.30;99.90;;;;;;4847429;29;20135;-92
2021/03/02 01:27:23;;;;;;;42.50;17.48;;;3.30;99.90;;;;;;4863564;29;20070;-93
2021/03/02 01:29:49;;;;;;;36.47;16.17;;;3.30;99.90;;;;;;4863074;29;20395;-93
2021/03/02 01:32:14;;;;;;;37.97;16.42;;;3.30;99.90;;;;;;4863934;29;20029;-93
2021/03/02 01:34:40;;;;;;;37.30;17.75;;;3.40;99.90;;;;;;4847338;29;20045;-93
2021/03/02 01:37:06;;;;;;;34.65;14.50;;;3.30;99.90;;;;;;4857408;29;20045;-92
2021/03/02 01:39:31;;;;;;;34.17;15.75;;;3.30;99.90;;;;;;4864621;29;20539;-93
2021/03/02 01:41:58;;;;;;;33.17;14.93;;;3.30;99.90;;;;;;4846599;29;20021;-92
2021/03/02 01:44:26;;;;;;;39.38;15.80;;;3.30;99.90;;;;;;4862413;29;20093;-93
2021/03/02 01:46:52;;;;;;;38.55;16.13;;;3.30;99.90;;;;;;4844771;29;20061;-92
2021/03/02 01:49:18;;;;;;;48.78;18.25;;;3.30;99.90;;;;;;4845121;29;20412;-92
2021/03/02 01:51:44;;;;;;;34.50;14.38;;;3.30;99.90;;;;;;4845346;29;20121;-93
2021/03/02 01:54:12;;;;;;;34.78;14.63;;;3.20;99.90;;;;;;4846684;29;20037;-94
2021/03/02 01:56:37;;;;;;;32.75;14.23;;;3.20;99.90;;;;;;4846470;29;20021;-93
2021/03/02 01:59:04;;;;;;;33.08;13.18;;;3.20;99.90;;;;;;4875068;29;20042;-93
2021/03/02 02:01:30;;;;;;;30.75;12.63;;;3.20;99.90;;;;;;4846230;29;20174;-92
2021/03/02 02:04:04;;;;;;;31.52;12.82;;;3.10;99.90;;;;;;4845573;29;20029;-92
2021/03/02 02:06:46;;;;;;;34.33;13.40;;;3.20;99.90;;;;;;4845445;29;20120;-93
2021/03/02 02:09:24;;;;;;;30.95;12.68;;;3.10;99.90;;;;;;4845195;29;20041;-93
2021/03/02 02:11:57;;;;;;;34.05;13.75;;;3.10;99.90;;;;;;4845522;29;20040;-95
2021/03/02 02:14:53;;;;;;;34.65;13.05;;;3.10;99.90;;;;;;4861661;29;20059;-93
2021/03/02 02:17:28;;;;;;;37.35;13.68;;;3.10;99.90;;;;;;4861534;29;20044;-94
2021/03/02 02:20:01;;;;;;;33.45;12.73;;;3.10;99.90;;;;;;4845302;29;20081;-95
2021/03/02 02:22:55;;;;;;;36.15;14.52;;;3.10;99.90;;;;;;4844789;29;20022;-94
2021/03/02 02:25:35;;;;;;;34.53;12.02;;;3.10;99.90;;;;;;4844977;29;20032;-94
2021/03/02 02:28:02;;;;;;;38.67;14.45;;;3.10;99.90;;;;;;4844496;29;20033;-94
2021/03/02 02:30:30;;;;;;;40.70;15.18;;;3.10;99.90;;;;;;4844400;29;20057;-94
2021/03/02 02:32:56;;;;;;;37.22;14.05;;;3.10;99.90;;;;;;4861356;29;20487;-94
2021/03/02 02:35:24;;;;;;;42.00;15.07;;;3.10;99.90;;;;;;4845283;29;20030;-94
2021/03/02 02:37:51;;;;;;;40.85;15.60;;;3.10;99.90;;;;;;4844245;29;20045;-93
2021/03/02 02:40:19;;;;;;;43.80;16.13;;;3.10;99.90;;;;;;4859918;29;20029;-93
2021/03/02 02:42:50;;;;;;;46.95;18.20;;;3.10;99.90;;;;;;4844457;29;20033;-93
2021/03/02 02:45:17;;;;;;;46.38;18.08;;;3.00;99.90;;;;;;4843868;29;20057;-94
2021/03/02 02:47:45;;;;;;;42.85;15.82;;;3.00;99.90;;;;;;4844494;29;20033;-94
2021/03/02 02:50:12;;;;;;;39.50;16.23;;;3.00;99.90;;;;;;4843806;29;20038;-93
2021/03/02 02:52:39;;;;;;;39.88;16.17;;;3.10;99.90;;;;;;4844072;29;20045;-93
2021/03/02 02:55:05;;;;;;;48.17;17.00;;;3.00;99.90;;;;;;4844275;29;20121;-93
2021/03/02 02:57:37;;;;;;;48.70;18.23;;;3.10;99.90;;;;;;4844005;29;20041;-92
2021/03/02 03:00:05;;;;;;;43.78;15.82;;;3.10;99.90;;;;;;4843428;29;20093;-92
2021/03/02 03:02:33;;;;;;;44.00;16.20;;;3.10;99.90;;;;;;4860592;29;20089;-92
2021/03/02 03:05:21;;;;;;;40.22;15.73;;;3.10;99.90;;;;;;4844192;29;20037;-92
2021/03/02 03:07:48;;;;;;;42.03;14.77;;;3.10;99.90;;;;;;4843182;29;20033;-93
2021/03/02 03:10:14;;;;;;;45.00;15.68;;;3.10;99.90;;;;;;4843943;29;20028;-93
2021/03/02 03:12:45;;;;;;;34.83;13.88;;;3.10;99.90;;;;;;4843933;29;20539;-93
2021/03/02 03:15:14;;;;;;;41.10;15.52;;;3.10;99.90;;;;;;4844570;29;20057;-93
2021/03/02 03:17:45;;;;;;;44.00;16.20;;;3.10;99.90;;;;;;4861497;29;20064;-92
2021/03/02 03:20:12;;;;;;;40.83;15.02;;;3.10;99.90;;;;;;4862353;29;20021;-92
2021/03/02 03:22:40;;;;;;;49.72;16.50;;;3.10;99.90;;;;;;4850858;29;20052;-92
2021/03/02 03:25:07;;;;;;;48.53;14.85;;;3.10;99.90;;;;;;4854940;29;20025;-92
2021/03/02 03:27:36;;;;;;;44.92;15.85;;;3.10;99.90;;;;;;4855405;29;20116;-92
2021/03/02 03:30:03;;;;;;;46.80;15.57;;;3.10;99.90;;;;;;4863350;29;20127;-93
2021/03/02 03:32:30;;;;;;;48.58;15.25;;;3.10;99.90;;;;;;4844675;29;20030;-92
2021/03/02 03:34:57;;;;;;;38.42;14.50;;;3.10;99.90;;;;;;4843768;29;20040;-93
2021/03/02 03:37:23;;;;;;;44.13;15.48;;;3.10;99.90;;;;;;4844442;29;20057;-92
2021/03/02 03:39:48;;;;;;;38.15;14.00;;;3.10;99.90;;;;;;4860652;29;20041;-92
2021/03/02 03:42:14;;;;;;;43.63;14.32;;;3.10;99.90;;;;;;4860205;29;20048;-93
2021/03/02 03:44:40;;;;;;;41.60;14.98;;;3.10;99.90;;;;;;4859664;29;20026;-93
2021/03/02 03:47:06;;;;;;;41.85;14.98;;;3.10;99.90;;;;;;4842599;29;20120;-92
2021/03/02 03:49:31;;;;;;;43.47;15.00;;;3.10;99.90;;;;;;4859317;29;20053;-93
2021/03/02 03:51:59;;;;;;;43.92;16.08;;;3.10;99.90;;;;;;4859241;29;20384;-92
2021/03/02 03:54:28;;;;;;;44.75;15.15;;;3.10;99.90;;;;;;4842872;29;20089;-91
2021/03/02 03:56:54;;;;;;;42.78;15.25;;;3.10;99.90;;;;;;4842122;29;20021;-92
2021/03/02 03:59:25;;;;;;;47.05;15.75;;;3.10;99.90;;;;;;4858997;29;20092;-92
2021/03/02 04:01:51;;;;;;;47.30;14.60;;;3.10;99.90;;;;;;4842361;29;20033;-92
2021/03/02 04:04:19;;;;;;;44.63;15.88;;;3.10;99.90;;;;;;4841995;29;20037;-92
2021/03/02 04:06:45;;;;;;;35.25;14.13;;;3.20;99.90;;;;;;4858821;29;20033;-91
2021/03/02 04:09:11;;;;;;;39.63;13.18;;;3.20;99.90;;;;;;4858496;29;20036;-92
2021/03/02 04:11:37;;;;;;;35.75;14.00;;;3.20;99.90;;;;;;4843031;29;20057;-91
2021/03/02 04:14:04;;;;;;;35.75;13.57;;;3.20;99.90;;;;;;4842959;29;20078;-91
2021/03/02 04:16:31;;;;;;;34.97;13.18;;;3.10;99.90;;;;;;4842617;29;20038;-92
2021/03/02 04:18:57;;;;;;;38.53;13.88;;;3.10;99.90;;;;;;4842583;29;20041;-92
2021/03/02 04:21:23;;;;;;;40.72;14.23;;;3.10;99.90;;;;;;4858804;29;20029;-92
2021/03/02 04:23:48;;;;;;;38.30;13.32;;;3.10;99.90;;;;;;4842913;29;20037;-92
2021/03/02 04:26:14;;;;;;;40.30;15.10;;;3.10;99.90;;;;;;4858825;29;20577;-91
2021/03/02 04:28:40;;;;;;;43.67;14.75;;;3.10;99.90;;;;;;4858612;29;20033;-93
2021/03/02 04:31:05;;;;;;;39.10;14.45;;;3.10;99.90;;;;;;4858532;29;20365;-91
2021/03/02 04:33:31;;;;;;;37.38;14.20;;;3.10;99.90;;;;;;4842780;29;20112;-91
2021/03/02 04:35:56;;;;;;;40.60;15.75;;;3.10;99.90;;;;;;4858009;29;20080;-91
2021/03/02 04:38:22;;;;;;;38.95;14.73;;;3.10;99.90;;;;;;4858782;29;20037;-91
2021/03/02 04:40:48;;;;;;;43.50;15.07;;;3.10;99.90;;;;;;4859702;29;20033;-91
2021/03/02 04:43:13;;;;;;;44.50;15.30;;;3.10;99.90;;;;;;4862257;29;20032;-92
2021/03/02 04:45:39;;;;;;;39.15;13.93;;;3.10;99.90;;;;;;4862605;29;20496;-91
2021/03/02 04:48:05;;;;;;;35.53;13.05;;;3.10;99.90;;;;;;4862537;29;20101;-90
2021/03/02 04:50:31;;;;;;;33.47;13.40;;;3.10;99.90;;;;;;4862352;29;20037;-90
2021/03/02 04:52:56;;;;;;;39.22;13.25;;;3.10;99.90;;;;;;4845860;29;20033;-93
2021/03/02 04:55:22;;;;;;;37.45;12.88;;;3.00;99.90;;;;;;4862401;29;20124;-90
2021/03/02 04:57:48;;;;;;;31.80;12.05;;;3.10;99.90;;;;;;4845967;29;20057;-90
2021/03/02 05:00:14;;;;;;;40.95;13.30;;;3.00;99.90;;;;;;4846137;29;20049;-92
2021/03/02 05:02:39;;;;;;;35.40;13.57;;;3.00;99.90;;;;;;4853772;29;20377;-91
2021/03/02 05:05:06;;;;;;;40.95;13.95;;;3.00;99.90;;;;;;4847751;29;20036;-91
2021/03/02 05:07:32;;;;;;;39.13;13.57;;;3.00;99.90;;;;;;4862444;29;20136;-91
2021/03/02 05:09:57;;;;;;;41.40;14.57;;;3.00;99.90;;;;;;4845585;29;20553;-92
2021/03/02 05:12:23;;;;;;;34.08;12.25;;;3.00;99.90;;;;;;4845541;29;20128;-91
2021/03/02 05:14:49;;;;;;;39.55;14.30;;;3.00;99.90;;;;;;4845752;29;20033;-92
2021/03/02 05:17:15;;;;;;;38.10;13.25;;;3.00;99.90;;;;;;4861656;29;20025;-92
2021/03/02 05:19:40;;;;;;;35.55;13.52;;;3.00;99.90;;;;;;4845673;29;20105;-91
2021/03/02 05:22:06;;;;;;;40.60;12.88;;;3.00;99.90;;;;;;4861491;29;20044;-91
2021/03/02 05:24:32;;;;;;;40.25;15.07;;;3.00;99.90;;;;;;4861728;29;20041;-91
2021/03/02 05:26:57;;;;;;;39.88;13.88;;;3.00;99.90;;;;;;4845575;29;20515;-91
2021/03/02 05:29:23;;;;;;;37.30;13.50;;;3.00;99.90;;;;;;4861741;29;20051;-91
2021/03/02 05:31:49;;;;;;;29.23;11.00;;;3.00;99.90;;;;;;4845485;29;20029;-91
2021/03/02 05:34:14;;;;;;;31.10;11.20;;;3.00;99.90;;;;;;4861870;29;20041;-92
2021/03/02 05:36:40;;;;;;;32.45;11.98;;;3.00;99.90;;;;;;4845430;29;20515;-92
2021/03/02 05:39:06;;;;;;;29.75;11.40;;;3.00;99.90;;;;;;4845458;29;20044;-92
2021/03/02 05:41:34;;;;;;;26.02;11.45;;;2.90;99.90;;;;;;4861792;29;20032;-92
2021/03/02 05:44:00;;;;;;;30.15;11.68;;;2.90;99.90;;;;;;4845201;29;20033;-91
2021/03/02 05:46:26;;;;;;;28.35;12.32;;;2.90;99.90;;;;;;4841737;29;20046;-93
2021/03/02 05:48:52;;;;;;;30.17;11.90;;;2.90;99.90;;;;;;4843118;29;20042;-91
2021/03/02 05:51:22;;;;;;;29.52;11.52;;;2.90;99.90;;;;;;4842068;29;20029;-93
2021/03/02 05:53:48;;;;;;;28.50;10.57;;;2.90;99.90;;;;;;4841881;29;20117;-94
2021/03/02 05:56:14;;;;;;;26.83;11.60;;;2.80;99.90;;;;;;4843382;29;20105;-93
2021/03/02 05:58:39;;;;;;;31.25;11.60;;;2.80;99.90;;;;;;4842622;29;20053;-94
2021/03/02 06:01:05;;;;;;;32.63;12.10;;;2.80;99.90;;;;;;4843000;29;20053;-94
2021/03/02 06:03:37;;;;;;;36.53;12.57;;;2.80;99.90;;;;;;4842041;29;20022;-93
2021/03/02 06:06:05;;;;;;;33.40;13.10;;;2.80;99.90;;;;;;4841768;29;20117;-93
2021/03/02 06:08:30;;;;;;;34.58;13.75;;;2.70;99.90;;;;;;4842611;29;20040;-93
2021/03/02 06:10:56;;;;;;;34.33;13.40;;;2.70;99.90;;;;;;4842831;29;20500;-91
2021/03/02 06:13:28;;;;;;;32.78;12.57;;;2.70;99.90;;;;;;4842869;29;20564;-93
2021/03/02 06:15:58;;;;;;;35.63;14.10;;;2.70;99.90;;;;;;4841937;29;20034;-93
2021/03/02 06:18:26;;;;;;;30.90;12.10;;;2.70;99.90;;;;;;4845542;29;20026;-93
2021/03/02 06:21:10;;;;;;;36.67;13.20;;;2.70;99.90;;;;;;4848381;29;20057;-92
2021/03/02 06:23:48;;;;;;;32.80;12.65;;;2.70;99.90;;;;;;4847573;29;20078;-93
2021/03/02 06:26:15;;;;;;;37.55;12.68;;;2.70;99.90;;;;;;4845768;29;20030;-92
2021/03/02 06:28:45;;;;;;;32.75;12.07;;;2.70;99.90;;;;;;4844633;29;20572;-93
2021/03/02 06:31:33;;;;;;;40.53;14.13;;;2.70;99.90;;;;;;4846329;29;20026;-92
2021/03/02 06:34:03;;;;;;;34.60;12.63;;;2.70;99.90;;;;;;4853680;29;20038;-93
2021/03/02 06:36:29;;;;;;;35.97;13.35;;;2.70;99.90;;;;;;4843186;29;20049;-94
2021/03/02 06:38:55;;;;;;;37.70;12.75;;;2.70;99.90;;;;;;4841299;29;20034;-94
2021/03/02 06:41:21;;;;;;;39.75;13.32;;;2.70;99.90;;;;;;4841276;29;20062;-93
2021/03/02 06:43:47;;;;;;;36.60;13.63;;;2.70;99.90;;;;;;4839250;29;20026;-93
2021/03/02 06:51:03;;;;;;;46.08;15.27;;;2.70;99.90;;;;;;4845401;29;20040;-93
2021/03/02 06:53:29;;;;;;;41.50;15.05;;;2.60;99.90;;;;;;4843841;29;20036;-94
2021/03/02 06:56:11;;;;;;;41.65;14.55;;;2.60;99.90;;;;;;4859839;29;20029;-92
2021/03/02 06:58:37;;;;;;;71.07;17.17;;;2.60;99.90;;;;;;4857329;29;20033;-93
2021/03/02 07:01:02;;;;;;;47.38;15.65;;;2.60;99.90;;;;;;4841418;29;20030;-92
2021/03/02 07:03:30;;;;;;;38.60;14.68;;;2.60;99.90;;;;;;4858180;29;20052;-94
2021/03/02 07:06:01;;;;;;;33.85;12.95;;;2.60;99.90;;;;;;4858754;29;20113;-93
2021/03/02 07:08:27;;;;;;;35.63;12.75;;;2.60;99.90;;;;;;4840797;29;20126;-92
2021/03/02 07:10:53;;;;;;;34.35;13.07;;;2.50;99.90;;;;;;4856988;29;20033;-92
2021/03/02 07:13:20;;;;;;;27.08;11.40;;;2.50;99.90;;;;;;4859117;29;20033;-92
2021/03/02 07:15:48;;;;;;;35.67;13.88;;;2.50;99.90;;;;;;4840829;29;20124;-93
2021/03/02 07:18:19;;;;;;;25.67;10.23;;;2.50;99.90;;;;;;4857813;29;20495;-93
2021/03/02 07:20:50;;;;;;;27.65;10.88;;;2.40;99.90;;;;;;4857380;29;20025;-93
2021/03/02 07:23:21;;;;;;;27.20;10.55;;;2.40;99.90;;;;;;4858078;29;20044;-94
2021/03/02 07:25:49;;;;;;;26.42;9.70;;;2.40;99.90;;;;;;4842187;29;20397;-95
2021/03/02 07:28:16;;;;;;;25.05;9.02;;;2.50;99.90;;;;;;4841920;29;20037;-94
2021/03/02 07:30:45;;;;;;;24.85;9.27;;;2.50;99.90;;;;;;4865736;29;20042;-92
2021/03/02 07:33:11;;;;;;;21.60;9.23;;;2.50;99.90;;;;;;4833198;29;20053;-92
2021/03/02 07:35:39;;;;;;;22.77;9.70;;;2.40;99.90;;;;;;4859413;29;20038;-92
2021/03/02 07:38:19;;;;;;;22.50;9.32;;;2.40;99.90;;;;;;4858154;29;20436;-93
2021/03/02 07:40:49;;;;;;;24.70;9.93;;;2.40;99.90;;;;;;4843364;29;20049;-93
2021/03/02 07:43:27;;;;;;;23.67;8.95;;;2.50;99.90;;;;;;4842106;29;20093;-93
2021/03/02 07:45:54;;;;;;;23.88;9.27;;;2.50;99.90;;;;;;4864390;29;20049;-94
2021/03/02 07:48:28;;;;;;;27.73;9.75;;;2.50;99.90;;;;;;4841377;29;20040;-94
2021/03/02 07:51:26;;;;;;;28.48;10.02;;;2.50;99.90;;;;;;4841275;29;20040;-94
2021/03/02 07:54:12;;;;;;;29.02;11.07;;;2.40;99.90;;;;;;4837281;29;20056;-93
2021/03/02 07:56:38;;;;;;;25.67;9.70;;;2.40;99.90;;;;;;4843389;29;20048;-93
2021/03/02 07:59:10;;;;;;;22.77;8.30;;;2.40;99.90;;;;;;4858032;29;20120;-91
2021/03/02 08:01:36;;;;;;;23.65;8.63;;;2.30;99.90;;;;;;4858007;29;20322;-91
2021/03/02 08:04:14;;;;;;;22.77;9.02;;;2.40;99.90;;;;;;4851491;29;20030;-90
2021/03/02 08:06:43;;;;;;;24.75;8.43;;;2.30;99.90;;;;;;4858904;29;20055;-91
2021/03/02 08:09:24;;;;;;;28.70;10.55;;;2.30;99.90;;;;;;4841561;29;20029;-90
2021/03/02 08:11:50;;;;;;;21.52;8.18;;;2.30;99.90;;;;;;4858914;29;20034;-90
2021/03/02 08:14:16;;;;;;;19.33;8.48;;;2.30;99.90;;;;;;4843264;29;20412;-91
2021/03/02 08:17:03;;;;;;;20.02;8.35;;;2.30;99.90;;;;;;4842802;29;20032;-91
2021/03/02 08:19:48;;;;;;;21.42;8.27;;;2.30;99.90;;;;;;4858696;29;20029;-91
2021/03/02 08:22:18;;;;;;;21.25;8.40;;;2.20;99.90;;;;;;4859916;29;20119;-90
2021/03/02 08:24:54;;;;;;;22.40;8.57;;;2.20;99.90;;;;;;4866457;29;20511;-91
2021/03/02 08:27:39;;;;;;;22.95;8.60;;;2.20;99.90;;;;;;4859661;29;20033;-91
2021/03/02 08:30:10;;;;;;;20.48;7.60;;;2.20;99.90;;;;;;4843276;29;20041;-91
2021/03/02 08:32:37;;;;;;;22.88;8.57;;;2.20;99.90;;;;;;4843228;29;20069;-90
2021/03/02 08:35:27;;;;;;;23.10;9.20;;;2.20;99.90;;;;;;4844467;29;20025;-91
2021/03/02 08:37:55;;;;;;;24.90;9.87;;;2.20;99.90;;;;;;4845181;29;20105;-90
2021/03/02 08:40:30;;;;;;;24.85;8.68;;;2.20;99.90;;;;;;4859366;29;20042;-90
2021/03/02 08:43:01;;;;;;;21.30;8.13;;;2.20;99.90;;;;;;4842928;29;20044;-90
2021/03/02 08:45:29;;;;;;;21.88;8.88;;;2.20;99.90;;;;;;4865947;29;20053;-91
2021/03/02 08:48:24;;;;;;;25.35;8.38;;;2.30;99.90;;;;;;4842802;29;20049;-92
2021/03/02 08:51:06;;;;;;;22.10;8.98;;;2.30;99.90;;;;;;4858669;29;20037;-92
2021/03/02 08:53:37;;;;;;;22.48;8.43;;;2.30;99.90;;;;;;4843452;29;20070;-90
2021/03/02 08:56:08;;;;;;;19.92;7.50;;;2.30;99.90;;;;;;4859503;29;20033;-91
2021/03/02 08:58:36;;;;;;;19.42;7.63;;;2.30;99.90;;;;;;4842888;29;20555;-90
2021/03/02 09:01:06;;;;;;;18.70;7.68;;;2.30;99.90;;;;;;4842895;29;20518;-90
2021/03/02 09:03:32;;;;;;;23.83;8.35;;;2.30;99.90;;;;;;4859235;29;20476;-90
2021/03/02 09:06:21;;;;;;;19.80;7.88;;;2.30;99.90;;;;;;4843035;29;20025;-91
2021/03/02 09:08:56;;;;;;;21.95;8.68;;;2.30;99.90;;;;;;4865276;29;20081;-90
2021/03/02 09:11:32;;;;;;;22.45;8.48;;;2.30;99.90;;;;;;4859505;29;20053;-90
2021/03/02 09:14:00;;;;;;;24.23;9.23;;;2.30;99.90;;;;;;4842313;29;20049;-92
2021/03/02 09:16:37;;;;;;;24.88;10.30;;;2.30;99.90;;;;;;4841037;29;20077;-90
2021/03/02 09:19:42;;;;;;;24.05;9.05;;;2.30;99.90;;;;;;4843444;29;20044;-91
2021/03/02 09:22:11;;;;;;;23.02;8.52;;;2.40;99.90;;;;;;4853896;29;20030;-89
2021/03/02 09:24:43;;;;;;;18.20;7.78;;;2.40;99.90;;;;;;4844497;29;20086;-92
2021/03/02 09:27:14;;;;;;;16.02;6.93;;;2.40;99.90;;;;;;4844599;29;20025;-91
2021/03/02 09:29:43;;;;;;;17.38;6.93;;;2.50;99.90;;;;;;4847620;29;20037;-93
2021/03/02 09:37:16;;;;;;;14.55;6.80;;;2.60;99.90;;;;;;5001566;23;20053;-91
2021/03/02 09:39:53;;;;;;;12.30;5.15;;;2.60;99.90;;;;;;4880083;29;20057;-91
2021/03/02 09:42:21;;;;;;;12.13;5.43;;;2.60;99.90;;;;;;4843186;29;20027;-92
2021/03/02 09:44:52;;;;;;;14.90;5.15;;;2.60;99.90;;;;;;4861723;29;20570;-92
2021/03/02 09:47:27;;;;;;;15.07;5.93;;;2.60;99.90;;;;;;4864336;29;20052;-92
2021/03/02 09:49:57;;;;;;;12.68;5.28;;;2.70;99.90;;;;;;4864008;29;20033;-93
2021/03/02 09:52:25;;;;;;;13.77;5.43;;;2.70;99.90;;;;;;4863715;29;20017;-92
2021/03/02 09:55:29;;;;;;;11.57;5.80;;;2.70;99.90;;;;;;4856300;29;20041;-92
2021/03/02 09:58:08;;;;;;;12.25;4.68;;;2.80;99.90;;;;;;4806785;29;20046;-91
2021/03/02 10:00:44;;;;;;;12.18;5.05;;;2.80;99.90;;;;;;4823091;29;20061;-92
2021/03/02 10:03:15;;;;;;;13.75;5.97;;;2.70;99.90;;;;;;4807717;29;20026;-91
2021/03/02 10:05:58;;;;;;;14.13;5.65;;;2.80;99.90;;;;;;4822995;29;20062;-91
2021/03/02 10:08:39;;;;;;;10.40;5.18;;;2.80;99.90;;;;;;4821601;29;20042;-85
2021/03/02 10:11:11;;;;;;;12.43;5.15;;;2.80;99.90;;;;;;4806822;29;20030;-92
2021/03/02 10:13:47;;;;;;;14.25;6.15;;;2.80;99.90;;;;;;4824858;29;20038;-91
2021/03/02 10:16:54;;;;;;;13.50;5.97;;;2.90;99.90;;;;;;4833109;29;20046;-92
2021/03/02 10:19:27;;;;;;;11.70;5.35;;;2.90;99.90;;;;;;4796855;29;20067;-92
2021/03/02 10:21:58;;;;;;;14.98;6.00;;;2.90;99.90;;;;;;4822410;29;20037;-91
2021/03/02 10:24:28;;;;;;;15.77;6.88;;;3.00;99.90;;;;;;4822453;29;20094;-92
2021/03/02 10:26:58;;;;;;;18.70;6.75;;;3.00;99.90;;;;;;4823617;29;20122;-91
2021/03/02 10:29:25;;;;;;;15.75;6.18;;;3.00;99.90;;;;;;4823441;29;20038;-92
2021/03/02 10:31:52;;;;;;;19.08;7.25;;;2.90;99.90;;;;;;4844463;29;20128;-92
2021/03/02 10:34:18;;;;;;;17.55;6.80;;;2.90;99.90;;;;;;4863748;29;21379;-92
2021/03/02 10:36:51;;;;;;;18.63;7.20;;;2.90;99.90;;;;;;4862373;29;20097;-92
2021/03/02 10:39:16;;;;;;;18.08;7.00;;;3.00;99.90;;;;;;4880041;29;20086;-92
2021/03/02 10:41:43;;;;;;;21.17;7.47;;;3.00;99.90;;;;;;4868358;29;20036;-91
2021/03/02 10:44:11;;;;;;;20.40;7.68;;;3.00;99.90;;;;;;4887357;29;20021;-90
2021/03/02 10:46:37;;;;;;;19.48;7.30;;;3.00;99.90;;;;;;4865742;29;20033;-92
2021/03/02 10:49:03;;;;;;;17.30;7.15;;;2.90;99.90;;;;;;4866990;29;20045;-90
2021/03/02 10:51:30;;;;;;;18.00;6.95;;;3.00;99.90;;;;;;4881247;29;20036;-91
2021/03/02 10:53:57;;;;;;;17.80;7.63;;;3.00;99.90;;;;;;4862989;29;20124;-91
2021/03/02 10:56:23;;;;;;;26.42;10.93;;;3.00;99.90;;;;;;4879226;29;20065;-90
2021/03/02 10:58:49;;;;;;;21.98;9.38;;;3.00;99.90;;;;;;4862824;29;20383;-89
2021/03/02 11:01:16;;;;;;;30.40;11.05;;;3.10;99.90;;;;;;4863385;29;20089;-89
2021/03/02 11:03:43;;;;;;;27.02;10.30;;;3.20;99.90;;;;;;4879549;29;20036;-89
2021/03/02 11:06:17;;;;;;;20.15;8.45;;;3.20;99.90;;;;;;4879986;29;20050;-90
2021/03/02 11:08:44;;;;;;;19.13;7.00;;;3.20;99.90;;;;;;4879907;29;20041;-90
2021/03/02 11:11:11;;;;;;;17.35;7.18;;;3.30;99.90;;;;;;4863856;29;20063;-89
2021/03/02 11:13:38;;;;;;;20.73;8.25;;;3.30;99.90;;;;;;4864138;29;20025;-93
2021/03/02 11:16:04;;;;;;;22.38;7.82;;;3.40;99.90;;;;;;4880878;29;20060;-92
2021/03/02 11:18:29;;;;;;;18.48;7.70;;;3.40;99.90;;;;;;4864115;29;20021;-92
2021/03/02 11:20:55;;;;;;;19.48;8.23;;;3.50;99.90;;;;;;4881501;29;20021;-92
2021/03/02 11:23:21;;;;;;;21.02;8.77;;;3.50;99.90;;;;;;4863752;29;20127;-92
2021/03/02 11:25:46;;;;;;;22.30;9.55;;;3.50;99.90;;;;;;4880362;29;20045;-92
2021/03/02 11:28:13;;;;;;;22.92;8.55;;;3.50;99.90;;;;;;4877713;29;20078;-92
2021/03/02 11:30:39;;;;;;;28.35;10.05;;;3.50;99.90;;;;;;4879719;29;20025;-91
2021/03/02 11:33:05;;;;;;;26.92;10.07;;;3.50;99.90;;;;;;4885112;29;20061;-91
2021/03/02 11:35:32;;;;;;;23.48;9.95;;;3.50;99.90;;;;;;4879305;29;20025;-93
2021/03/02 11:37:58;;;;;;;42.63;17.40;;;3.50;99.90;;;;;;4863091;29;20041;-92
2021/03/02 11:40:24;;;;;;;57.47;25.60;;;3.50;99.90;;;;;;4862799;29;20025;-92
2021/03/02 11:42:52;;;;;;;62.50;30.23;;;3.60;99.90;;;;;;4863386;29;20124;-92
2021/03/02 11:45:22;;;;;;;48.70;20.05;;;3.60;99.90;;;;;;4880699;29;20029;-92
2021/03/02 11:47:49;;;;;;;30.75;12.90;;;3.60;99.90;;;;;;4868504;29;20029;-93
2021/03/02 11:50:15;;;;;;;33.38;14.05;;;3.60;99.90;;;;;;4878839;29;20049;-92
2021/03/02 11:52:41;;;;;;;38.78;16.13;;;3.70;99.90;;;;;;4863216;29;20032;-93
2021/03/02 11:55:08;;;;;;;36.15;13.88;;;3.70;99.90;;;;;;4862724;29;20049;-93
2021/03/02 11:57:35;;;;;;;38.30;12.85;;;3.70;99.90;;;;;;4879070;29;20044;-92
2021/03/02 12:00:01;;;;;;;33.90;13.32;;;3.70;99.90;;;;;;4878858;29;20084;-93
2021/03/02 12:02:27;;;;;;;38.35;14.40;;;3.70;99.90;;;;;;4878053;29;20104;-92
2021/03/02 12:04:53;;;;;;;37.30;13.30;;;3.70;99.90;;;;;;4861730;29;20033;-92
2021/03/02 12:07:19;;;;;;;36.47;13.55;;;3.80;99.90;;;;;;4862209;29;20041;-91
2021/03/02 12:09:45;;;;;;;33.83;13.98;;;3.80;99.90;;;;;;4863152;29;20405;-91
2021/03/02 12:12:11;;;;;;;35.00;14.32;;;3.80;99.90;;;;;;4885148;29;20130;-92
2021/03/02 12:14:37;;;;;;;37.05;14.80;;;3.80;99.90;;;;;;4879065;29;20155;-93
2021/03/02 12:17:03;;;;;;;33.60;13.48;;;3.90;99.90;;;;;;4863776;29;20024;-92
2021/03/02 12:19:29;;;;;;;31.60;13.68;;;3.90;99.90;;;;;;4879051;29;20570;-93
2021/03/02 12:21:55;;;;;;;35.97;14.30;;;4.00;99.90;;;;;;4879216;29;20152;-92
2021/03/02 12:24:22;;;;;;;31.20;13.68;;;4.00;99.90;;;;;;4862317;29;20022;-92
2021/03/02 12:26:48;;;;;;;35.30;13.75;;;4.10;99.90;;;;;;4885407;29;20025;-93
2021/03/02 12:29:13;;;;;;;36.03;13.93;;;4.10;99.90;;;;;;4878822;29;20045;-94
2021/03/02 12:31:40;;;;;;;34.45;13.82;;;4.10;99.90;;;;;;4877571;29;20032;-92
2021/03/02 12:34:06;;;;;;;36.80;15.77;;;4.10;99.90;;;;;;4862371;29;20405;-93
2021/03/02 12:36:32;;;;;;;37.47;14.85;;;4.10;99.90;;;;;;4861815;29;20147;-91
2021/03/02 12:38:57;;;;;;;35.08;15.20;;;4.10;99.90;;;;;;4860123;29;20069;-92
2021/03/02 12:41:23;;;;;;;33.10;13.82;;;4.20;99.90;;;;;;4861785;29;20036;-93
2021/03/02 12:43:48;;;;;;;34.55;15.00;;;4.20;99.90;;;;;;4878088;29;20072;-92
2021/03/02 12:46:14;;;;;;;40.15;16.05;;;4.30;99.90;;;;;;4861230;29;20453;-93
2021/03/02 12:48:40;;;;;;;34.50;14.88;;;4.40;99.90;;;;;;4877784;29;20068;-93
2021/03/02 12:51:06;;;;;;;40.28;16.17;;;4.50;99.90;;;;;;4885145;29;20380;-93
2021/03/02 12:53:32;;;;;;;41.42;15.52;;;4.60;99.90;;;;;;4860611;29;20029;-92
2021/03/02 12:55:58;;;;;;;41.55;15.95;;;4.60;99.90;;;;;;4860526;29;20025;-92
2021/03/02 12:58:24;;;;;;;39.47;17.02;;;4.70;99.90;;;;;;4859925;29;20024;-92
2021/03/02 13:00:49;;;;;;;38.63;15.40;;;4.70;99.90;;;;;;4860355;29;20387;-92